sensor_id;sensor_type;location;lat;lon;timestamp;noise_LAeq;noise_LA_min;noise_LA_max;noise_LA01;noise_LA95
79288;Laerm;68737;53.946;27.634;2023-12-20T00:00:42;39.975960;36.822922;56.149727;;
79288;Laerm;68737;53.946;27.634;2023-12-20T00:03:12;45.495949;37.472260;61.109375;;
79288;Laerm;68737;53.946;27.634;2023-12-20T00:05:42;43.471977;36.264580;58.400101;;
79288;Laerm;68737;53.946;27.634;2023-12-20T00:08:12;39.390839;36.954102;50.349960;;
79288;Laerm;68737;53.946;27.634;2023-12-20T00:10:43;44.951736;36.867355;59.248558;;
79288;Laerm;68737;53.946;27.634;2023-12-20T00:13:12;42.393288;36.862564;57.063324;;
79288;Laerm;68737;53.946;27.634;2023-12-20T00:15:42;46.604874;38.272369;57.425491;;
79288;Laerm;68737;53.946;27.634;2023-12-20T00:18:12;43.902664;36.770050;71.596031;;
79288;Laerm;68737;53.946;27.634;2023-12-20T00:20:42;47.629372;37.384521;59.735130;;
79288;Laerm;68737;53.946;27.634;2023-12-20T00:23:12;40.877182;36.641632;53.042198;;
79288;Laerm;68737;53.946;27.634;2023-12-20T00:25:42;40.863609;37.273682;55.290810;;
79288;Laerm;68737;53.946;27.634;2023-12-20T00:28:12;45.926811;37.091751;58.538078;;
79288;Laerm;68737;53.946;27.634;2023-12-20T00:30:42;39.134422;36.774452;43.680199;;
79288;Laerm;68737;53.946;27.634;2023-12-20T00:33:12;44.229874;36.846550;59.346340;;
79288;Laerm;68737;53.946;27.634;2023-12-20T00:35:42;38.950714;36.316406;50.706001;;
79288;Laerm;68737;53.946;27.634;2023-12-20T00:38:12;43.122841;36.723686;55.892845;;
79288;Laerm;68737;53.946;27.634;2023-12-20T00:40:42;40.209305;36.901764;53.203667;;
79288;Laerm;68737;53.946;27.634;2023-12-20T00:43:12;40.199646;36.950272;54.648056;;
79288;Laerm;68737;53.946;27.634;2023-12-20T00:45:43;39.547775;36.412025;51.408890;;
79288;Laerm;68737;53.946;27.634;2023-12-20T00:48:12;45.894798;36.425766;62.607426;;
79288;Laerm;68737;53.946;27.634;2023-12-20T00:50:42;39.590027;36.760513;53.247887;;
79288;Laerm;68737;53.946;27.634;2023-12-20T00:53:12;41.665977;36.637169;57.765556;;
79288;Laerm;68737;53.946;27.634;2023-12-20T00:55:43;38.681259;36.433823;53.740570;;
79288;Laerm;68737;53.946;27.634;2023-12-20T00:58:12;44.288422;37.590500;58.590302;;
79288;Laerm;68737;53.946;27.634;2023-12-20T01:00:42;45.176231;37.620049;62.345749;;
79288;Laerm;68737;53.946;27.634;2023-12-20T01:03:12;43.517616;37.398499;56.811485;;
79288;Laerm;68737;53.946;27.634;2023-12-20T01:05:43;44.977898;37.404007;58.854279;;
79288;Laerm;68737;53.946;27.634;2023-12-20T01:08:13;39.273277;36.628220;48.533524;;
79288;Laerm;68737;53.946;27.634;2023-12-20T01:10:42;44.812881;37.267303;60.020981;;
79288;Laerm;68737;53.946;27.634;2023-12-20T01:13:13;48.299660;37.121094;61.024181;;
79288;Laerm;68737;53.946;27.634;2023-12-20T01:15:42;47.157677;37.140045;62.692619;;
79288;Laerm;68737;53.946;27.634;2023-12-20T01:18:13;47.729408;36.361275;61.127708;;
79288;Laerm;68737;53.946;27.634;2023-12-20T01:20:43;40.553040;36.841339;50.722351;;
79288;Laerm;68737;53.946;27.634;2023-12-20T01:23:12;44.809227;37.151794;60.790230;;
79288;Laerm;68737;53.946;27.634;2023-12-20T01:25:44;39.606079;37.341286;49.477669;;
79288;Laerm;68737;53.946;27.634;2023-12-20T01:28:12;41.636612;37.559135;54.657478;;
79288;Laerm;68737;53.946;27.634;2023-12-20T01:30:42;45.952850;37.147987;60.041077;;
79288;Laerm;68737;53.946;27.634;2023-12-20T01:33:12;41.532249;36.120415;53.358398;;
79288;Laerm;68737;53.946;27.634;2023-12-20T01:35:42;51.564018;36.549812;67.274185;;
79288;Laerm;68737;53.946;27.634;2023-12-20T01:38:12;41.083206;37.868057;48.254990;;
79288;Laerm;68737;53.946;27.634;2023-12-20T01:43:13;50.537674;38.257805;65.037849;;
79288;Laerm;68737;53.946;27.634;2023-12-20T01:45:42;42.035416;39.414024;53.415817;;
79288;Laerm;68737;53.946;27.634;2023-12-20T01:48:12;41.070251;38.314651;48.550262;;
79288;Laerm;68737;53.946;27.634;2023-12-20T01:50:44;51.711967;39.106644;64.390961;;
79288;Laerm;68737;53.946;27.634;2023-12-20T01:53:12;48.577034;39.260765;59.336922;;
79288;Laerm;68737;53.946;27.634;2023-12-20T01:55:42;49.699112;39.657806;64.355057;;
79288;Laerm;68737;53.946;27.634;2023-12-20T01:58:12;51.617851;41.553001;62.749199;;
79288;Laerm;68737;53.946;27.634;2023-12-20T02:00:42;52.187370;41.845612;63.847530;;
79288;Laerm;68737;53.946;27.634;2023-12-20T02:03:12;43.871017;40.976158;53.545288;;
79288;Laerm;68737;53.946;27.634;2023-12-20T02:05:42;50.150681;40.134842;64.851616;;
79288;Laerm;68737;53.946;27.634;2023-12-20T02:08:12;49.601311;39.805122;64.265518;;
79288;Laerm;68737;53.946;27.634;2023-12-20T02:10:42;49.205589;39.684258;63.080418;;
79288;Laerm;68737;53.946;27.634;2023-12-20T02:13:12;47.198364;39.160622;59.500603;;
79288;Laerm;68737;53.946;27.634;2023-12-20T02:15:42;45.433800;40.733376;56.704460;;
79288;Laerm;68737;53.946;27.634;2023-12-20T02:18:12;51.204704;38.875931;65.055069;;
79288;Laerm;68737;53.946;27.634;2023-12-20T02:20:42;50.948677;38.683655;66.012863;;
79288;Laerm;68737;53.946;27.634;2023-12-20T02:23:12;48.603836;38.209511;62.861969;;
79288;Laerm;68737;53.946;27.634;2023-12-20T02:25:42;46.885513;37.885292;62.619045;;
79288;Laerm;68737;53.946;27.634;2023-12-20T02:28:12;45.885910;37.025124;61.231510;;
79288;Laerm;68737;53.946;27.634;2023-12-20T02:30:42;40.253586;37.199440;53.721596;;
79288;Laerm;68737;53.946;27.634;2023-12-20T02:33:12;44.453674;37.727661;57.570679;;
79288;Laerm;68737;53.946;27.634;2023-12-20T02:35:42;54.010406;37.648300;64.468948;;
79288;Laerm;68737;53.946;27.634;2023-12-20T02:38:12;51.851059;40.213028;64.993210;;
79288;Laerm;68737;53.946;27.634;2023-12-20T02:40:42;46.971916;37.726852;61.725510;;
79288;Laerm;68737;53.946;27.634;2023-12-20T02:43:12;40.674149;37.618210;52.819778;;
79288;Laerm;68737;53.946;27.634;2023-12-20T02:45:42;40.561813;37.467018;52.157181;;
79288;Laerm;68737;53.946;27.634;2023-12-20T02:48:12;47.215080;37.754288;63.247467;;
79288;Laerm;68737;53.946;27.634;2023-12-20T02:50:42;47.138100;37.363266;60.693298;;
79288;Laerm;68737;53.946;27.634;2023-12-20T02:53:12;50.521263;37.596214;64.556190;;
79288;Laerm;68737;53.946;27.634;2023-12-20T02:55:42;54.087227;42.275269;65.229591;;
79288;Laerm;68737;53.946;27.634;2023-12-20T02:58:12;56.049049;38.592606;71.126801;;
79288;Laerm;68737;53.946;27.634;2023-12-20T03:00:42;50.410934;39.011055;64.165154;;
79288;Laerm;68737;53.946;27.634;2023-12-20T03:03:12;50.067955;38.649307;64.509384;;
79288;Laerm;68737;53.946;27.634;2023-12-20T03:05:42;48.268425;38.604317;59.978294;;
79288;Laerm;68737;53.946;27.634;2023-12-20T03:08:12;50.680565;39.775475;61.691402;;
79288;Laerm;68737;53.946;27.634;2023-12-20T03:10:42;51.508797;40.012062;63.876129;;
79288;Laerm;68737;53.946;27.634;2023-12-20T03:13:12;52.967224;41.337242;69.414764;;
79288;Laerm;68737;53.946;27.634;2023-12-20T03:15:42;54.824280;43.734177;70.919037;;
79288;Laerm;68737;53.946;27.634;2023-12-20T03:18:12;51.592598;41.751518;61.789162;;
79288;Laerm;68737;53.946;27.634;2023-12-20T03:20:42;50.318886;40.665245;62.045425;;
79288;Laerm;68737;53.946;27.634;2023-12-20T03:23:12;57.200500;43.743591;68.014267;;
79288;Laerm;68737;53.946;27.634;2023-12-20T03:25:42;52.840462;41.169136;65.144684;;
79288;Laerm;68737;53.946;27.634;2023-12-20T03:28:14;53.566032;42.146698;65.931053;;
79288;Laerm;68737;53.946;27.634;2023-12-20T03:30:42;53.008629;41.154160;64.280899;;
79288;Laerm;68737;53.946;27.634;2023-12-20T03:33:12;48.484901;39.843483;59.517738;;
79288;Laerm;68737;53.946;27.634;2023-12-20T03:35:42;54.447830;41.164223;64.419983;;
79288;Laerm;68737;53.946;27.634;2023-12-20T03:38:12;50.637390;39.291466;66.398453;;
79288;Laerm;68737;53.946;27.634;2023-12-20T03:40:42;55.081360;42.198502;65.952423;;
79288;Laerm;68737;53.946;27.634;2023-12-20T03:43:12;53.619812;41.185432;65.967453;;
79288;Laerm;68737;53.946;27.634;2023-12-20T03:45:42;54.487442;42.485229;65.143173;;
79288;Laerm;68737;53.946;27.634;2023-12-20T03:48:12;52.002304;41.868515;63.741684;;
79288;Laerm;68737;53.946;27.634;2023-12-20T03:50:42;55.435226;45.325989;65.097427;;
79288;Laerm;68737;53.946;27.634;2023-12-20T03:53:12;52.818008;42.262405;61.758232;;
79288;Laerm;68737;53.946;27.634;2023-12-20T03:55:42;53.752838;42.660988;62.008461;;
79288;Laerm;68737;53.946;27.634;2023-12-20T03:58:12;55.261421;42.959862;64.983704;;
79288;Laerm;68737;53.946;27.634;2023-12-20T04:00:42;55.981369;42.151566;65.507996;;
79288;Laerm;68737;53.946;27.634;2023-12-20T04:03:12;54.704933;44.704224;62.812988;;
79288;Laerm;68737;53.946;27.634;2023-12-20T04:05:42;53.563240;42.282875;64.438461;;
79288;Laerm;68737;53.946;27.634;2023-12-20T04:08:12;53.861824;42.054939;75.227814;;
79288;Laerm;68737;53.946;27.634;2023-12-20T04:10:42;56.661316;44.559792;71.953857;;
79288;Laerm;68737;53.946;27.634;2023-12-20T04:13:12;55.136841;43.985558;64.999977;;
79288;Laerm;68737;53.946;27.634;2023-12-20T04:15:42;54.869324;44.876862;63.037609;;
79288;Laerm;68737;53.946;27.634;2023-12-20T04:18:12;57.319824;47.235947;66.791107;;
79288;Laerm;68737;53.946;27.634;2023-12-20T04:20:42;57.358719;47.389862;64.203018;;
79288;Laerm;68737;53.946;27.634;2023-12-20T04:23:12;53.439041;43.309067;62.288288;;
79288;Laerm;68737;53.946;27.634;2023-12-20T04:25:42;58.572845;50.291725;64.979698;;
79288;Laerm;68737;53.946;27.634;2023-12-20T04:28:12;55.301857;45.650650;63.195435;;
79288;Laerm;68737;53.946;27.634;2023-12-20T04:30:42;56.434624;46.961754;64.334587;;
79288;Laerm;68737;53.946;27.634;2023-12-20T04:33:12;57.044510;47.485107;70.994873;;
79288;Laerm;68737;53.946;27.634;2023-12-20T04:35:42;57.188812;47.183098;64.761353;;
79288;Laerm;68737;53.946;27.634;2023-12-20T04:38:12;56.911171;49.680626;64.013969;;
79288;Laerm;68737;53.946;27.634;2023-12-20T04:40:42;59.163261;50.317520;66.117096;;
79288;Laerm;68737;53.946;27.634;2023-12-20T04:43:12;57.762444;47.526810;63.469376;;
79288;Laerm;68737;53.946;27.634;2023-12-20T04:45:42;58.129494;47.433868;66.971489;;
79288;Laerm;68737;53.946;27.634;2023-12-20T04:48:12;58.366249;48.278610;64.223564;;
79288;Laerm;68737;53.946;27.634;2023-12-20T04:50:42;58.401184;49.323853;65.438232;;
79288;Laerm;68737;53.946;27.634;2023-12-20T04:53:12;58.225647;51.606880;65.405914;;
79288;Laerm;68737;53.946;27.634;2023-12-20T04:55:42;58.695351;53.168083;67.693909;;
79288;Laerm;68737;53.946;27.634;2023-12-20T04:58:12;58.034447;50.128174;66.333710;;
79288;Laerm;68737;53.946;27.634;2023-12-20T05:00:42;57.186562;51.829277;64.689713;;
79288;Laerm;68737;53.946;27.634;2023-12-20T05:03:12;57.568581;50.722473;71.547668;;
79288;Laerm;68737;53.946;27.634;2023-12-20T05:05:42;58.446983;50.964523;67.709763;;
79288;Laerm;68737;53.946;27.634;2023-12-20T05:08:12;57.884102;51.049522;68.710220;;
79288;Laerm;68737;53.946;27.634;2023-12-20T05:10:42;58.183540;48.929062;65.585526;;
79288;Laerm;68737;53.946;27.634;2023-12-20T05:13:12;57.652763;49.846092;65.820602;;
79288;Laerm;68737;53.946;27.634;2023-12-20T05:15:42;58.764107;51.521713;69.441902;;
79288;Laerm;68737;53.946;27.634;2023-12-20T05:18:12;58.835304;47.834198;67.054611;;
79288;Laerm;68737;53.946;27.634;2023-12-20T05:20:42;56.729828;48.941360;65.362579;;
79288;Laerm;68737;53.946;27.634;2023-12-20T05:23:12;58.445518;50.917580;71.404297;;
79288;Laerm;68737;53.946;27.634;2023-12-20T05:25:42;59.042313;51.982475;66.257065;;
79288;Laerm;68737;53.946;27.634;2023-12-20T05:28:12;57.831978;49.039902;67.676628;;
79288;Laerm;68737;53.946;27.634;2023-12-20T05:30:42;60.530937;49.329437;71.520103;;
79288;Laerm;68737;53.946;27.634;2023-12-20T05:33:12;59.481071;52.372192;67.612839;;
79288;Laerm;68737;53.946;27.634;2023-12-20T05:35:42;60.645515;53.562332;70.132751;;
79288;Laerm;68737;53.946;27.634;2023-12-20T05:38:12;59.660294;53.916580;68.024033;;
79288;Laerm;68737;53.946;27.634;2023-12-20T05:40:42;58.324760;51.201843;64.868896;;
79288;Laerm;68737;53.946;27.634;2023-12-20T05:43:12;58.033821;52.013123;66.360077;;
79288;Laerm;68737;53.946;27.634;2023-12-20T05:45:42;57.453529;47.218071;63.957947;;
79288;Laerm;68737;53.946;27.634;2023-12-20T05:48:12;57.630829;48.990540;65.869919;;
79288;Laerm;68737;53.946;27.634;2023-12-20T05:50:42;58.050522;49.677895;65.744743;;
79288;Laerm;68737;53.946;27.634;2023-12-20T05:53:12;58.235085;50.911179;65.831169;;
79288;Laerm;68737;53.946;27.634;2023-12-20T05:55:42;57.712929;49.377304;64.258957;;
79288;Laerm;68737;53.946;27.634;2023-12-20T05:58:12;57.705368;50.744408;63.969025;;
79288;Laerm;68737;53.946;27.634;2023-12-20T06:00:42;57.546448;50.188835;66.516983;;
79288;Laerm;68737;53.946;27.634;2023-12-20T06:03:12;57.170006;48.459526;64.970871;;
79288;Laerm;68737;53.946;27.634;2023-12-20T06:05:42;58.476669;49.515244;66.525658;;
79288;Laerm;68737;53.946;27.634;2023-12-20T06:08:12;56.903587;47.906433;63.737030;;
79288;Laerm;68737;53.946;27.634;2023-12-20T06:10:42;58.543633;47.212509;68.494659;;
79288;Laerm;68737;53.946;27.634;2023-12-20T06:13:12;58.080269;47.576370;65.755280;;
79288;Laerm;68737;53.946;27.634;2023-12-20T06:15:42;59.825096;48.411446;69.388626;;
79288;Laerm;68737;53.946;27.634;2023-12-20T06:18:12;58.164963;47.936775;66.385574;;
79288;Laerm;68737;53.946;27.634;2023-12-20T06:20:42;59.688416;48.917854;72.690712;;
79288;Laerm;68737;53.946;27.634;2023-12-20T06:23:12;57.495003;47.684685;65.467056;;
79288;Laerm;68737;53.946;27.634;2023-12-20T06:25:43;56.719460;45.841362;68.526077;;
79288;Laerm;68737;53.946;27.634;2023-12-20T06:28:12;58.069336;47.550980;67.684235;;
79288;Laerm;68737;53.946;27.634;2023-12-20T06:30:42;60.444500;48.681046;69.898979;;
79288;Laerm;68737;53.946;27.634;2023-12-20T06:33:12;56.742592;47.069374;65.559410;;
79288;Laerm;68737;53.946;27.634;2023-12-20T06:35:42;59.017761;48.464584;71.341553;;
79288;Laerm;68737;53.946;27.634;2023-12-20T06:38:12;57.337891;49.030289;68.540817;;
79288;Laerm;68737;53.946;27.634;2023-12-20T06:40:42;57.498505;47.602745;71.770462;;
79288;Laerm;68737;53.946;27.634;2023-12-20T06:43:12;58.566673;49.406502;72.699951;;
79288;Laerm;68737;53.946;27.634;2023-12-20T06:45:42;59.074245;49.062782;73.364761;;
79288;Laerm;68737;53.946;27.634;2023-12-20T06:48:12;58.360970;47.196030;69.754707;;
79288;Laerm;68737;53.946;27.634;2023-12-20T06:50:42;60.796749;46.365944;71.253410;;
79288;Laerm;68737;53.946;27.634;2023-12-20T06:53:12;58.788513;46.645622;72.860298;;
79288;Laerm;68737;53.946;27.634;2023-12-20T06:55:42;57.457222;48.121368;65.317497;;
79288;Laerm;68737;53.946;27.634;2023-12-20T06:58:12;58.943672;47.406746;78.850327;;
79288;Laerm;68737;53.946;27.634;2023-12-20T07:00:42;61.383255;48.145882;74.416779;;
79288;Laerm;68737;53.946;27.634;2023-12-20T07:03:12;59.253582;47.774712;74.955788;;
79288;Laerm;68737;53.946;27.634;2023-12-20T07:05:42;57.074638;47.215378;72.171608;;
79288;Laerm;68737;53.946;27.634;2023-12-20T07:08:12;57.239105;48.470177;62.800755;;
79288;Laerm;68737;53.946;27.634;2023-12-20T07:10:42;56.408646;47.917915;68.473068;;
79288;Laerm;68737;53.946;27.634;2023-12-20T07:13:12;60.001141;49.382896;70.340424;;
79288;Laerm;68737;53.946;27.634;2023-12-20T07:15:42;57.052193;45.912140;68.752014;;
79288;Laerm;68737;53.946;27.634;2023-12-20T07:18:12;58.947594;48.719406;69.226585;;
79288;Laerm;68737;53.946;27.634;2023-12-20T07:20:42;58.332451;46.920601;71.750900;;
79288;Laerm;68737;53.946;27.634;2023-12-20T07:23:12;60.323853;48.472588;77.048523;;
79288;Laerm;68737;53.946;27.634;2023-12-20T07:25:42;57.996300;44.961395;76.655853;;
79288;Laerm;68737;53.946;27.634;2023-12-20T07:28:12;55.793671;46.271164;77.302170;;
79288;Laerm;68737;53.946;27.634;2023-12-20T07:30:42;57.627228;47.956253;72.741615;;
79288;Laerm;68737;53.946;27.634;2023-12-20T07:33:12;61.095997;49.438515;70.483742;;
79288;Laerm;68737;53.946;27.634;2023-12-20T07:35:42;58.051697;46.392044;67.104843;;
79288;Laerm;68737;53.946;27.634;2023-12-20T07:38:12;59.064629;45.951233;68.732239;;
79288;Laerm;68737;53.946;27.634;2023-12-20T07:40:42;57.134483;47.193039;63.999268;;
79288;Laerm;68737;53.946;27.634;2023-12-20T07:43:12;55.902908;46.290604;64.662956;;
79288;Laerm;68737;53.946;27.634;2023-12-20T07:45:42;57.531830;49.325424;63.358868;;
79288;Laerm;68737;53.946;27.634;2023-12-20T07:48:12;57.055740;47.164726;65.776947;;
79288;Laerm;68737;53.946;27.634;2023-12-20T07:50:42;56.055550;44.918571;67.561783;;
79288;Laerm;68737;53.946;27.634;2023-12-20T07:53:12;58.708382;45.774170;68.320328;;
79288;Laerm;68737;53.946;27.634;2023-12-20T07:55:42;58.283661;45.218048;67.572296;;
79288;Laerm;68737;53.946;27.634;2023-12-20T07:58:12;57.457657;48.319473;68.619888;;
79288;Laerm;68737;53.946;27.634;2023-12-20T08:00:42;56.086571;45.995773;63.261974;;
79288;Laerm;68737;53.946;27.634;2023-12-20T08:03:12;58.658386;44.601067;70.810638;;
79288;Laerm;68737;53.946;27.634;2023-12-20T08:05:42;58.526283;47.185860;69.628326;;
79288;Laerm;68737;53.946;27.634;2023-12-20T08:08:12;55.279716;45.083939;66.513588;;
79288;Laerm;68737;53.946;27.634;2023-12-20T08:10:42;57.822945;44.500153;67.435432;;
79288;Laerm;68737;53.946;27.634;2023-12-20T08:13:12;58.370949;48.518112;67.444885;;
79288;Laerm;68737;53.946;27.634;2023-12-20T08:15:42;54.671005;46.049118;66.916649;;
79288;Laerm;68737;53.946;27.634;2023-12-20T08:18:12;57.378532;44.832664;71.317368;;
79288;Laerm;68737;53.946;27.634;2023-12-20T08:20:42;55.959755;46.408348;70.255997;;
79288;Laerm;68737;53.946;27.634;2023-12-20T08:23:12;57.567345;47.397156;70.836540;;
79288;Laerm;68737;53.946;27.634;2023-12-20T08:25:42;57.839241;44.906410;69.101219;;
79288;Laerm;68737;53.946;27.634;2023-12-20T08:28:12;60.552231;49.548950;70.678818;;
79288;Laerm;68737;53.946;27.634;2023-12-20T08:30:42;58.141190;45.725266;70.690010;;
79288;Laerm;68737;53.946;27.634;2023-12-20T08:33:12;57.568077;44.552055;70.702995;;
79288;Laerm;68737;53.946;27.634;2023-12-20T08:35:42;57.289948;48.914253;63.936924;;
79288;Laerm;68737;53.946;27.634;2023-12-20T08:38:12;57.355774;49.814003;64.428291;;
79288;Laerm;68737;53.946;27.634;2023-12-20T08:40:42;57.566757;49.900337;67.140793;;
79288;Laerm;68737;53.946;27.634;2023-12-20T08:43:12;57.317039;48.456558;66.234619;;
79288;Laerm;68737;53.946;27.634;2023-12-20T08:45:42;58.209480;48.293541;70.089310;;
79288;Laerm;68737;53.946;27.634;2023-12-20T08:48:12;58.449287;47.613403;72.267220;;
79288;Laerm;68737;53.946;27.634;2023-12-20T08:50:42;58.344505;48.533081;68.643158;;
79288;Laerm;68737;53.946;27.634;2023-12-20T08:53:12;56.217102;47.787415;63.799580;;
79288;Laerm;68737;53.946;27.634;2023-12-20T08:55:42;57.335815;48.078873;72.668289;;
79288;Laerm;68737;53.946;27.634;2023-12-20T08:58:12;58.098862;45.353889;69.579742;;
79288;Laerm;68737;53.946;27.634;2023-12-20T09:00:42;59.721020;45.186272;73.211502;;
79288;Laerm;68737;53.946;27.634;2023-12-20T09:03:12;58.089005;49.026093;70.880493;;
79288;Laerm;68737;53.946;27.634;2023-12-20T09:05:42;56.102379;47.195526;64.087372;;
79288;Laerm;68737;53.946;27.634;2023-12-20T09:08:12;57.482567;47.332672;67.321861;;
79288;Laerm;68737;53.946;27.634;2023-12-20T09:10:42;57.605362;46.763931;65.516769;;
79288;Laerm;68737;53.946;27.634;2023-12-20T09:13:12;57.005600;47.664482;66.925018;;
79288;Laerm;68737;53.946;27.634;2023-12-20T09:15:42;57.382835;46.082466;69.439117;;
79288;Laerm;68737;53.946;27.634;2023-12-20T09:18:12;57.979218;48.357979;65.896217;;
79288;Laerm;68737;53.946;27.634;2023-12-20T09:20:42;60.536278;46.900826;74.894272;;
79288;Laerm;68737;53.946;27.634;2023-12-20T09:23:12;60.493130;48.055420;72.872986;;
79288;Laerm;68737;53.946;27.634;2023-12-20T09:25:42;58.452667;48.343185;66.180145;;
79288;Laerm;68737;53.946;27.634;2023-12-20T09:28:12;56.660553;46.794853;65.327644;;
79288;Laerm;68737;53.946;27.634;2023-12-20T09:30:42;59.093277;46.098236;78.559273;;
79288;Laerm;68737;53.946;27.634;2023-12-20T09:33:12;56.860741;47.462822;75.976456;;
79288;Laerm;68737;53.946;27.634;2023-12-20T09:35:42;58.134148;47.117874;77.081085;;
79288;Laerm;68737;53.946;27.634;2023-12-20T09:38:12;56.808365;47.147507;66.100052;;
79288;Laerm;68737;53.946;27.634;2023-12-20T09:40:42;59.132774;47.159805;70.545197;;
79288;Laerm;68737;53.946;27.634;2023-12-20T09:43:13;58.870483;45.909599;73.305786;;
79288;Laerm;68737;53.946;27.634;2023-12-20T09:45:42;60.584160;51.118988;74.461868;;
79288;Laerm;68737;53.946;27.634;2023-12-20T09:48:12;58.422478;46.028839;72.029366;;
79288;Laerm;68737;53.946;27.634;2023-12-20T09:50:42;60.381294;49.236580;74.748932;;
79288;Laerm;68737;53.946;27.634;2023-12-20T09:53:14;57.696213;48.493202;68.004654;;
79288;Laerm;68737;53.946;27.634;2023-12-20T09:55:42;58.170486;49.657310;71.950127;;
79288;Laerm;68737;53.946;27.634;2023-12-20T09:58:12;57.358429;47.465546;66.108490;;
79288;Laerm;68737;53.946;27.634;2023-12-20T10:00:42;60.085026;47.802788;70.616348;;
79288;Laerm;68737;53.946;27.634;2023-12-20T10:03:12;60.509739;49.637550;74.561501;;
79288;Laerm;68737;53.946;27.634;2023-12-20T10:05:42;59.354752;46.959663;70.966560;;
79288;Laerm;68737;53.946;27.634;2023-12-20T10:08:12;61.417473;51.000046;75.064018;;
79288;Laerm;68737;53.946;27.634;2023-12-20T10:10:42;58.102303;47.398964;72.329102;;
79288;Laerm;68737;53.946;27.634;2023-12-20T10:13:12;57.750954;45.606186;72.602921;;
79288;Laerm;68737;53.946;27.634;2023-12-20T10:15:42;57.191948;44.812477;70.698250;;
79288;Laerm;68737;53.946;27.634;2023-12-20T10:18:12;58.127106;46.396942;72.169212;;
79288;Laerm;68737;53.946;27.634;2023-12-20T10:20:42;58.428802;49.168877;70.005890;;
79288;Laerm;68737;53.946;27.634;2023-12-20T10:23:12;57.537064;48.958168;65.103676;;
79288;Laerm;68737;53.946;27.634;2023-12-20T10:25:42;55.622025;45.303963;62.661644;;
79288;Laerm;68737;53.946;27.634;2023-12-20T10:30:42;57.945549;45.973831;67.152290;;
79288;Laerm;68737;53.946;27.634;2023-12-20T10:33:12;59.042526;46.966438;70.634323;;
79288;Laerm;68737;53.946;27.634;2023-12-20T10:35:42;58.229599;46.239845;76.167740;;
79288;Laerm;68737;53.946;27.634;2023-12-20T10:38:12;56.154007;47.381790;67.577087;;
79288;Laerm;68737;53.946;27.634;2023-12-20T10:40:42;60.308762;49.395897;75.216415;;
79288;Laerm;68737;53.946;27.634;2023-12-20T10:43:12;58.420662;46.054283;70.391396;;
79288;Laerm;68737;53.946;27.634;2023-12-20T10:45:42;56.858849;48.919724;66.186378;;
79288;Laerm;68737;53.946;27.634;2023-12-20T10:48:12;57.785492;44.686646;70.715347;;
79288;Laerm;68737;53.946;27.634;2023-12-20T10:50:42;58.434624;48.059425;71.524681;;
79288;Laerm;68737;53.946;27.634;2023-12-20T10:53:12;58.836220;47.050262;71.063171;;
79288;Laerm;68737;53.946;27.634;2023-12-20T10:55:42;58.930016;47.474152;70.945206;;
79288;Laerm;68737;53.946;27.634;2023-12-20T10:58:12;57.729904;46.148026;71.386719;;
79288;Laerm;68737;53.946;27.634;2023-12-20T11:00:42;57.221901;47.005600;68.490128;;
79288;Laerm;68737;53.946;27.634;2023-12-20T11:03:12;58.714920;45.200218;70.922195;;
79288;Laerm;68737;53.946;27.634;2023-12-20T11:15:42;57.743752;45.683861;67.716034;;
79288;Laerm;68737;53.946;27.634;2023-12-20T11:18:12;57.059692;46.546967;65.246902;;
79288;Laerm;68737;53.946;27.634;2023-12-20T11:20:42;57.572983;46.286591;68.808167;;
79288;Laerm;68737;53.946;27.634;2023-12-20T11:23:12;57.207947;46.579018;67.402786;;
79288;Laerm;68737;53.946;27.634;2023-12-20T11:28:12;58.039001;47.291183;67.774994;;
79288;Laerm;68737;53.946;27.634;2023-12-20T11:30:42;55.846962;47.802216;63.530224;;
79288;Laerm;68737;53.946;27.634;2023-12-20T11:33:12;63.414749;49.065331;71.869659;;
79288;Laerm;68737;53.946;27.634;2023-12-20T11:35:42;55.890030;46.930313;64.792099;;
79288;Laerm;68737;53.946;27.634;2023-12-20T11:38:12;57.879761;45.327873;68.963570;;
79288;Laerm;68737;53.946;27.634;2023-12-20T11:40:42;58.492393;46.216087;72.310020;;
79288;Laerm;68737;53.946;27.634;2023-12-20T11:43:11;57.273338;44.342934;72.264633;;
79288;Laerm;68737;53.946;27.634;2023-12-20T11:45:48;57.075760;43.745247;70.982376;;
79288;Laerm;68737;53.946;27.634;2023-12-20T11:48:11;55.345413;44.571327;64.536331;;
79288;Laerm;68737;53.946;27.634;2023-12-20T11:50:41;62.677685;48.306252;75.823204;;
79288;Laerm;68737;53.946;27.634;2023-12-20T11:53:11;58.040543;44.293068;71.286308;;
79288;Laerm;68737;53.946;27.634;2023-12-20T11:55:41;55.087578;45.795441;62.720459;;
79288;Laerm;68737;53.946;27.634;2023-12-20T11:58:11;56.880814;44.007835;70.317520;;
79288;Laerm;68737;53.946;27.634;2023-12-20T12:00:42;56.656143;45.428764;67.116150;;
79288;Laerm;68737;53.946;27.634;2023-12-20T12:03:14;57.432121;48.377678;70.410660;;
79288;Laerm;68737;53.946;27.634;2023-12-20T12:05:41;57.606285;49.834381;66.635590;;